sensor_id;sensor_type;location;lat;lon;timestamp;pressure;altitude;pressure_sealevel;temperature;humidity
76052;BME280;64751;48.708;9.710;2024-03-07T00:01:55;98068.84;;;3.69;100.00
76052;BME280;64751;48.708;9.710;2024-03-07T00:04:23;98067.81;;;3.70;100.00
76052;BME280;64751;48.708;9.710;2024-03-07T00:06:55;98068.72;;;3.64;100.00
76052;BME280;64751;48.708;9.710;2024-03-07T00:09:28;98063.13;;;3.60;100.00
76052;BME280;64751;48.708;9.710;2024-03-07T00:12:00;98063.06;;;3.67;100.00
76052;BME280;64751;48.708;9.710;2024-03-07T00:14:29;98053.84;;;3.64;100.00
76052;BME280;64751;48.708;9.710;2024-03-07T00:16:58;98062.59;;;3.70;100.00
76052;BME280;64751;48.708;9.710;2024-03-07T00:19:26;98058.97;;;3.71;100.00
76052;BME280;64751;48.708;9.710;2024-03-07T00:21:59;98059.78;;;3.72;100.00
76052;BME280;64751;48.708;9.710;2024-03-07T00:24:26;98066.00;;;3.71;100.00
76052;BME280;64751;48.708;9.710;2024-03-07T00:26:54;98066.59;;;3.73;100.00
76052;BME280;64751;48.708;9.710;2024-03-07T00:29:23;98070.25;;;3.72;100.00
76052;BME280;64751;48.708;9.710;2024-03-07T00:31:52;98077.13;;;3.66;100.00
76052;BME280;64751;48.708;9.710;2024-03-07T00:34:19;98073.50;;;3.67;100.00
76052;BME280;64751;48.708;9.710;2024-03-07T00:36:49;98068.84;;;3.69;100.00
76052;BME280;64751;48.708;9.710;2024-03-07T00:39:17;98067.25;;;3.68;100.00
76052;BME280;64751;48.708;9.710;2024-03-07T00:41:45;98067.13;;;3.63;100.00
76052;BME280;64751;48.708;9.710;2024-03-07T00:44:18;98061.31;;;3.61;100.00
76052;BME280;64751;48.708;9.710;2024-03-07T00:46:45;98067.31;;;3.61;100.00
76052;BME280;64751;48.708;9.710;2024-03-07T00:49:14;98064.94;;;3.60;100.00
76052;BME280;64751;48.708;9.710;2024-03-07T00:51:47;98064.38;;;3.58;100.00
76052;BME280;64751;48.708;9.710;2024-03-07T00:54:20;98051.31;;;3.58;100.00
76052;BME280;64751;48.708;9.710;2024-03-07T00:56:47;98059.56;;;3.55;100.00
76052;BME280;64751;48.708;9.710;2024-03-07T00:59:15;98051.75;;;3.55;100.00
76052;BME280;64751;48.708;9.710;2024-03-07T01:01:47;98052.53;;;3.55;100.00
76052;BME280;64751;48.708;9.710;2024-03-07T01:04:21;98051.31;;;3.58;100.00
76052;BME280;64751;48.708;9.710;2024-03-07T01:06:53;98052.13;;;3.58;100.00
76052;BME280;64751;48.708;9.710;2024-03-07T01:09:21;98046.44;;;3.61;100.00
76052;BME280;64751;48.708;9.710;2024-03-07T01:11:54;98051.66;;;3.61;100.00
76052;BME280;64751;48.708;9.710;2024-03-07T01:14:27;98047.81;;;3.64;100.00
76052;BME280;64751;48.708;9.710;2024-03-07T01:16:54;98043.41;;;3.64;100.00
76052;BME280;64751;48.708;9.710;2024-03-07T01:19:28;98048.97;;;3.68;100.00
76052;BME280;64751;48.708;9.710;2024-03-07T01:21:55;98041.94;;;3.68;100.00
76052;BME280;64751;48.708;9.710;2024-03-07T01:24:23;98042.16;;;3.67;100.00
76052;BME280;64751;48.708;9.710;2024-03-07T01:26:50;98044.53;;;3.68;100.00
76052;BME280;64751;48.708;9.710;2024-03-07T01:29:23;98037.13;;;3.65;100.00
76052;BME280;64751;48.708;9.710;2024-03-07T01:31:50;98031.50;;;3.68;100.00
76052;BME280;64751;48.708;9.710;2024-03-07T01:34:17;98036.72;;;3.68;100.00
76052;BME280;64751;48.708;9.710;2024-03-07T01:36:51;98032.44;;;3.74;100.00
76052;BME280;64751;48.708;9.710;2024-03-07T01:39:18;98030.59;;;3.75;100.00
76052;BME280;64751;48.708;9.710;2024-03-07T01:41:47;98030.41;;;3.76;100.00
76052;BME280;64751;48.708;9.710;2024-03-07T01:44:15;98032.44;;;3.74;100.00
76052;BME280;64751;48.708;9.710;2024-03-07T01:46:42;98031.78;;;3.79;100.00
76052;BME280;64751;48.708;9.710;2024-03-07T01:49:10;98024.72;;;3.79;100.00
76052;BME280;64751;48.708;9.710;2024-03-07T01:51:42;98025.94;;;3.77;100.00
76052;BME280;64751;48.708;9.710;2024-03-07T01:54:12;98021.53;;;3.77;100.00
76052;BME280;64751;48.708;9.710;2024-03-07T01:56:39;98021.28;;;3.67;100.00
76052;BME280;64751;48.708;9.710;2024-03-07T01:59:07;98016.13;;;3.60;100.00
76052;BME280;64751;48.708;9.710;2024-03-07T02:01:40;98015.75;;;3.57;100.00
76052;BME280;64751;48.708;9.710;2024-03-07T02:04:13;98008.50;;;3.59;100.00
76052;BME280;64751;48.708;9.710;2024-03-07T02:06:46;98010.78;;;3.55;100.00
76052;BME280;64751;48.708;9.710;2024-03-07T02:09:19;98002.22;;;3.48;100.00
76052;BME280;64751;48.708;9.710;2024-03-07T02:11:47;98012.88;;;3.47;100.00
76052;BME280;64751;48.708;9.710;2024-03-07T02:14:15;98008.09;;;3.44;100.00
76052;BME280;64751;48.708;9.710;2024-03-07T02:16:47;98000.50;;;3.42;100.00
76052;BME280;64751;48.708;9.710;2024-03-07T02:19:20;97998.69;;;3.43;100.00
76052;BME280;64751;48.708;9.710;2024-03-07T02:21:49;98000.03;;;3.45;100.00
76052;BME280;64751;48.708;9.710;2024-03-07T02:24:16;97995.13;;;3.37;100.00
76052;BME280;64751;48.708;9.710;2024-03-07T02:26:48;97989.47;;;3.40;100.00
76052;BME280;64751;48.708;9.710;2024-03-07T02:29:20;97992.66;;;3.42;100.00
76052;BME280;64751;48.708;9.710;2024-03-07T02:31:48;97985.25;;;3.39;100.00
76052;BME280;64751;48.708;9.710;2024-03-07T02:34:21;97984.25;;;3.40;100.00
76052;BME280;64751;48.708;9.710;2024-03-07T02:36:55;97982.66;;;3.39;100.00
76052;BME280;64751;48.708;9.710;2024-03-07T02:39:22;97978.47;;;3.38;100.00
76052;BME280;64751;48.708;9.710;2024-03-07T02:41:50;97988.09;;;3.38;100.00
76052;BME280;64751;48.708;9.710;2024-03-07T02:44:18;97981.06;;;3.38;100.00
76052;BME280;64751;48.708;9.710;2024-03-07T02:46:50;97985.25;;;3.39;100.00
76052;BME280;64751;48.708;9.710;2024-03-07T02:49:18;97978.66;;;3.37;100.00
76052;BME280;64751;48.708;9.710;2024-03-07T02:51:52;97980.34;;;3.31;100.00
76052;BME280;64751;48.708;9.710;2024-03-07T02:54:25;97973.75;;;3.29;100.00
76052;BME280;64751;48.708;9.710;2024-03-07T02:56:58;97973.97;;;3.27;100.00
76052;BME280;64751;48.708;9.710;2024-03-07T02:59:25;97978.97;;;3.29;100.00
76052;BME280;64751;48.708;9.710;2024-03-07T03:01:57;97970.34;;;3.28;100.00
76052;BME280;64751;48.708;9.710;2024-03-07T03:04:30;97960.41;;;3.19;100.00
76052;BME280;64751;48.708;9.710;2024-03-07T03:07:02;97971.13;;;3.29;100.00
76052;BME280;64751;48.708;9.710;2024-03-07T03:09:36;97966.91;;;3.28;100.00
76052;BME280;64751;48.708;9.710;2024-03-07T03:12:11;97972.16;;;3.28;100.00
76052;BME280;64751;48.708;9.710;2024-03-07T03:14:43;97973.59;;;3.24;100.00
76052;BME280;64751;48.708;9.710;2024-03-07T03:17:10;97966.66;;;3.18;99.88
76052;BME280;64751;48.708;9.710;2024-03-07T03:19:38;97969.25;;;3.18;100.00
76052;BME280;64751;48.708;9.710;2024-03-07T03:22:10;97968.78;;;3.09;99.24
76052;BME280;64751;48.708;9.710;2024-03-07T03:24:39;97966.22;;;3.03;100.00
76052;BME280;64751;48.708;9.710;2024-03-07T03:27:13;97959.84;;;2.99;100.00
76052;BME280;64751;48.708;9.710;2024-03-07T03:29:40;97971.28;;;2.98;100.00
76052;BME280;64751;48.708;9.710;2024-03-07T03:32:08;97973.44;;;3.01;100.00
76052;BME280;64751;48.708;9.710;2024-03-07T03:34:40;97970.84;;;3.01;99.88
76052;BME280;64751;48.708;9.710;2024-03-07T03:37:13;97968.25;;;3.01;99.75
76052;BME280;64751;48.708;9.710;2024-03-07T03:39:47;97969.69;;;2.97;99.50
76052;BME280;64751;48.708;9.710;2024-03-07T03:42:15;97972.28;;;2.97;99.85
76052;BME280;64751;48.708;9.710;2024-03-07T03:44:48;97970.16;;;2.93;99.34
76052;BME280;64751;48.708;9.710;2024-03-07T03:47:20;97966.50;;;2.94;99.34
76052;BME280;64751;48.708;9.710;2024-03-07T03:49:48;97963.63;;;2.84;99.29
76052;BME280;64751;48.708;9.710;2024-03-07T03:52:20;97964.63;;;2.83;99.08
76052;BME280;64751;48.708;9.710;2024-03-07T03:54:48;97966.66;;;2.81;99.62
76052;BME280;64751;48.708;9.710;2024-03-07T03:57:21;97970.06;;;2.82;99.72
76052;BME280;64751;48.708;9.710;2024-03-07T03:59:53;97971.28;;;2.79;100.00
76052;BME280;64751;48.708;9.710;2024-03-07T04:02:27;97950.56;;;2.66;99.50
76052;BME280;64751;48.708;9.710;2024-03-07T04:04:59;97963.53;;;2.73;99.64
76052;BME280;64751;48.708;9.710;2024-03-07T04:07:31;97968.53;;;2.74;100.00
76052;BME280;64751;48.708;9.710;2024-03-07T04:10:05;97970.97;;;2.69;100.00
76052;BME280;64751;48.708;9.710;2024-03-07T04:12:40;97959.81;;;2.62;99.58
76052;BME280;64751;48.708;9.710;2024-03-07T04:15:10;97956.19;;;2.63;99.66
76052;BME280;64751;48.708;9.710;2024-03-07T04:17:38;97957.06;;;2.57;100.00
76052;BME280;64751;48.708;9.710;2024-03-07T04:20:10;97962.84;;;2.59;100.00
76052;BME280;64751;48.708;9.710;2024-03-07T04:22:39;97956.31;;;2.50;99.26
76052;BME280;64751;48.708;9.710;2024-03-07T04:25:08;97960.31;;;2.53;99.71
76052;BME280;64751;48.708;9.710;2024-03-07T04:27:36;97960.72;;;2.50;99.76
76052;BME280;64751;48.708;9.710;2024-03-07T04:30:07;97955.69;;;2.55;100.00
76052;BME280;64751;48.708;9.710;2024-03-07T04:32:40;97964.72;;;2.52;98.87
76052;BME280;64751;48.708;9.710;2024-03-07T04:35:13;97958.28;;;2.55;99.94
76052;BME280;64751;48.708;9.710;2024-03-07T04:37:45;97955.91;;;2.53;100.00
76052;BME280;64751;48.708;9.710;2024-03-07T04:40:14;97960.50;;;2.51;98.88
76052;BME280;64751;48.708;9.710;2024-03-07T04:42:42;97959.28;;;2.54;99.93
76052;BME280;64751;48.708;9.710;2024-03-07T04:45:11;97960.97;;;2.48;99.40
76052;BME280;64751;48.708;9.710;2024-03-07T04:47:45;97959.94;;;2.49;99.17
76052;BME280;64751;48.708;9.710;2024-03-07T04:50:18;97959.19;;;2.42;99.47
76052;BME280;64751;48.708;9.710;2024-03-07T04:52:45;97959.56;;;2.46;100.00
76052;BME280;64751;48.708;9.710;2024-03-07T04:55:14;97959.19;;;2.42;99.18
76052;BME280;64751;48.708;9.710;2024-03-07T04:57:41;97957.22;;;2.38;99.08
76052;BME280;64751;48.708;9.710;2024-03-07T05:00:15;97962.44;;;2.38;99.52
76052;BME280;64751;48.708;9.710;2024-03-07T05:02:46;97957.28;;;2.31;99.38
76052;BME280;64751;48.708;9.710;2024-03-07T05:05:14;97956.28;;;2.32;99.27
76052;BME280;64751;48.708;9.710;2024-03-07T05:07:47;97963.94;;;2.27;99.19
76052;BME280;64751;48.708;9.710;2024-03-07T05:10:17;97958.31;;;2.30;99.85
76052;BME280;64751;48.708;9.710;2024-03-07T05:12:45;97962.50;;;2.31;99.63
76052;BME280;64751;48.708;9.710;2024-03-07T05:15:12;97964.69;;;2.34;100.00
76052;BME280;64751;48.708;9.710;2024-03-07T05:17:39;97958.09;;;2.32;99.22
76052;BME280;64751;48.708;9.710;2024-03-07T05:20:14;97958.81;;;2.39;99.86
76052;BME280;64751;48.708;9.710;2024-03-07T05:22:46;97966.06;;;2.37;100.00
76052;BME280;64751;48.708;9.710;2024-03-07T05:25:22;97964.69;;;2.34;99.50
76052;BME280;64751;48.708;9.710;2024-03-07T05:27:55;97975.91;;;2.35;100.00
76052;BME280;64751;48.708;9.710;2024-03-07T05:30:22;97968.50;;;2.32;99.37
76052;BME280;64751;48.708;9.710;2024-03-07T05:32:56;97965.47;;;2.35;100.00
76052;BME280;64751;48.708;9.710;2024-03-07T05:35:24;97967.13;;;2.29;99.07
76052;BME280;64751;48.708;9.710;2024-03-07T05:37:52;97965.31;;;2.30;98.09
76052;BME280;64751;48.708;9.710;2024-03-07T05:40:28;97960.63;;;2.13;97.48
76052;BME280;64751;48.708;9.710;2024-03-07T05:43:01;97961.44;;;2.14;99.03
76052;BME280;64751;48.708;9.710;2024-03-07T05:45:33;97964.63;;;2.16;98.91
76052;BME280;64751;48.708;9.710;2024-03-07T05:48:14;97966.22;;;2.17;97.71
76052;BME280;64751;48.708;9.710;2024-03-07T05:50:48;97965.03;;;2.13;98.23
76052;BME280;64751;48.708;9.710;2024-03-07T05:53:20;97968.31;;;2.08;98.55
76052;BME280;64751;48.708;9.710;2024-03-07T05:55:49;97968.66;;;2.12;98.80
76052;BME280;64751;48.708;9.710;2024-03-07T05:58:17;97961.66;;;2.12;97.80
76052;BME280;64751;48.708;9.710;2024-03-07T06:00:46;97958.66;;;2.09;98.55
76052;BME280;64751;48.708;9.710;2024-03-07T06:03:21;97967.06;;;2.11;100.00
76052;BME280;64751;48.708;9.710;2024-03-07T06:05:55;97973.28;;;2.10;99.27
76052;BME280;64751;48.708;9.710;2024-03-07T06:08:27;97972.72;;;2.08;100.00
76052;BME280;64751;48.708;9.710;2024-03-07T06:11:01;97967.44;;;2.14;100.00
76052;BME280;64751;48.708;9.710;2024-03-07T06:13:28;97967.41;;;2.21;100.00
76052;BME280;64751;48.708;9.710;2024-03-07T06:16:01;97971.38;;;2.24;100.00
76052;BME280;64751;48.708;9.710;2024-03-07T06:18:36;97959.94;;;2.25;100.00
76052;BME280;64751;48.708;9.710;2024-03-07T06:21:08;97954.19;;;2.16;100.00
76052;BME280;64751;48.708;9.710;2024-03-07T06:23:41;97959.31;;;2.29;100.00
76052;BME280;64751;48.708;9.710;2024-03-07T06:26:15;97965.72;;;2.33;99.79
76052;BME280;64751;48.708;9.710;2024-03-07T06:28:52;97963.69;;;2.35;100.00
76052;BME280;64751;48.708;9.710;2024-03-07T06:31:25;97957.66;;;2.35;100.00
76052;BME280;64751;48.708;9.710;2024-03-07T06:33:57;97963.63;;;2.42;100.00
76052;BME280;64751;48.708;9.710;2024-03-07T06:36:25;97957.19;;;2.44;100.00
76052;BME280;64751;48.708;9.710;2024-03-07T06:38:57;97960.38;;;2.46;100.00
76052;BME280;64751;48.708;9.710;2024-03-07T06:41:31;97960.38;;;2.46;100.00
76052;BME280;64751;48.708;9.710;2024-03-07T06:43:58;97965.38;;;2.48;100.00
76052;BME280;64751;48.708;9.710;2024-03-07T06:46:31;97959.34;;;2.47;100.00
76052;BME280;64751;48.708;9.710;2024-03-07T06:48:59;97960.09;;;2.54;100.00
76052;BME280;64751;48.708;9.710;2024-03-07T06:51:27;97968.88;;;2.60;100.00
76052;BME280;64751;48.708;9.710;2024-03-07T06:53:59;97965.97;;;2.68;100.00
76052;BME280;64751;48.708;9.710;2024-03-07T06:56:27;97966.13;;;2.73;100.00
76052;BME280;64751;48.708;9.710;2024-03-07T06:59:01;97969.09;;;2.76;100.00
76052;BME280;64751;48.708;9.710;2024-03-07T07:01:35;97965.84;;;2.81;99.61
76052;BME280;64751;48.708;9.710;2024-03-07T07:04:07;97963.69;;;2.78;100.00
76052;BME280;64751;48.708;9.710;2024-03-07T07:06:40;97966.28;;;2.78;100.00
76052;BME280;64751;48.708;9.710;2024-03-07T07:09:09;97955.06;;;2.77;100.00
76052;BME280;64751;48.708;9.710;2024-03-07T07:11:41;97966.41;;;2.83;100.00
76052;BME280;64751;48.708;9.710;2024-03-07T07:14:13;97972.78;;;2.87;100.00
76052;BME280;64751;48.708;9.710;2024-03-07T07:16:40;97968.53;;;2.92;100.00
76052;BME280;64751;48.708;9.710;2024-03-07T07:19:11;97963.09;;;2.94;100.00
76052;BME280;64751;48.708;9.710;2024-03-07T07:21:44;97962.66;;;2.97;100.00
76052;BME280;64751;48.708;9.710;2024-03-07T07:24:16;97966.00;;;3.04;99.88
76052;BME280;64751;48.708;9.710;2024-03-07T07:26:50;97948.25;;;2.94;100.00
76052;BME280;64751;48.708;9.710;2024-03-07T07:29:23;97955.91;;;3.08;99.39
76052;BME280;64751;48.708;9.710;2024-03-07T07:31:56;97961.50;;;3.11;100.00
76052;BME280;64751;48.708;9.710;2024-03-07T07:34:23;97962.09;;;3.13;100.00
76052;BME280;64751;48.708;9.710;2024-03-07T07:36:56;97965.06;;;3.17;100.00
76052;BME280;64751;48.708;9.710;2024-03-07T07:39:29;97964.41;;;3.21;100.00
76052;BME280;64751;48.708;9.710;2024-03-07T07:42:03;97962.81;;;3.20;100.00
76052;BME280;64751;48.708;9.710;2024-03-07T07:44:37;97962.59;;;3.22;99.25
76052;BME280;64751;48.708;9.710;2024-03-07T07:47:04;97961.84;;;3.33;99.83
76052;BME280;64751;48.708;9.710;2024-03-07T07:49:32;97960.31;;;3.43;100.00
76052;BME280;64751;48.708;9.710;2024-03-07T07:52:05;97957.19;;;3.53;100.00
76052;BME280;64751;48.708;9.710;2024-03-07T07:54:34;97954.63;;;3.64;99.68
76052;BME280;64751;48.708;9.710;2024-03-07T07:57:07;97957.28;;;3.76;99.23
76052;BME280;64751;48.708;9.710;2024-03-07T07:59:41;97952.28;;;3.86;99.21
76052;BME280;64751;48.708;9.710;2024-03-07T08:02:14;97952.19;;;3.93;98.26
76052;BME280;64751;48.708;9.710;2024-03-07T08:04:46;97945.53;;;4.08;98.58
76052;BME280;64751;48.708;9.710;2024-03-07T08:07:20;97941.78;;;4.16;98.42
76052;BME280;64751;48.708;9.710;2024-03-07T08:09:47;97948.63;;;4.28;97.73
76052;BME280;64751;48.708;9.710;2024-03-07T08:12:20;97943.53;;;4.33;94.26
76052;BME280;64751;48.708;9.710;2024-03-07T08:14:53;97942.41;;;4.41;93.77
76052;BME280;64751;48.708;9.710;2024-03-07T08:17:21;97944.53;;;4.44;91.87
76052;BME280;64751;48.708;9.710;2024-03-07T08:19:53;97945.03;;;4.53;94.41
76052;BME280;64751;48.708;9.710;2024-03-07T08:22:26;97943.88;;;4.60;94.57
76052;BME280;64751;48.708;9.710;2024-03-07T08:24:58;97939.00;;;4.64;93.45
76052;BME280;64751;48.708;9.710;2024-03-07T08:27:31;97939.19;;;4.74;94.06
76052;BME280;64751;48.708;9.710;2024-03-07T08:30:00;97947.50;;;4.82;93.75
76052;BME280;64751;48.708;9.710;2024-03-07T08:32:27;97943.50;;;4.80;91.57
76052;BME280;64751;48.708;9.710;2024-03-07T08:34:59;97931.03;;;4.82;91.63
76052;BME280;64751;48.708;9.710;2024-03-07T08:37:37;97937.69;;;4.89;94.78
76052;BME280;64751;48.708;9.710;2024-03-07T08:40:11;97932.47;;;4.89;92.82
76052;BME280;64751;48.708;9.710;2024-03-07T08:42:51;97937.13;;;4.99;92.11
76052;BME280;64751;48.708;9.710;2024-03-07T08:45:20;97937.78;;;5.18;91.74
76052;BME280;64751;48.708;9.710;2024-03-07T08:47:54;97931.47;;;5.30;91.17
76052;BME280;64751;48.708;9.710;2024-03-07T08:50:22;97923.00;;;5.40;93.15
76052;BME280;64751;48.708;9.710;2024-03-07T08:52:50;97924.22;;;5.49;92.69
76052;BME280;64751;48.708;9.710;2024-03-07T08:55:24;97918.84;;;5.55;91.98
76052;BME280;64751;48.708;9.710;2024-03-07T08:57:56;97920.94;;;5.70;90.43
76052;BME280;64751;48.708;9.710;2024-03-07T09:00:25;97923.56;;;5.70;88.50
76052;BME280;64751;48.708;9.710;2024-03-07T09:02:58;97928.09;;;5.74;89.06
76052;BME280;64751;48.708;9.710;2024-03-07T09:05:34;97923.13;;;5.90;88.90
76052;BME280;64751;48.708;9.710;2024-03-07T09:08:02;97919.09;;;5.99;88.31
76052;BME280;64751;48.708;9.710;2024-03-07T09:10:34;97917.91;;;6.06;88.88
76052;BME280;64751;48.708;9.710;2024-03-07T09:13:07;97925.38;;;5.98;86.77
76052;BME280;64751;48.708;9.710;2024-03-07T09:15:37;97927.44;;;5.96;86.78
76052;BME280;64751;48.708;9.710;2024-03-07T09:18:04;97922.38;;;5.89;86.53
76052;BME280;64751;48.708;9.710;2024-03-07T09:20:37;97916.44;;;5.82;88.28
76052;BME280;64751;48.708;9.710;2024-03-07T09:23:04;97916.25;;;5.72;85.99
76052;BME280;64751;48.708;9.710;2024-03-07T09:25:37;97928.50;;;5.83;87.55
76052;BME280;64751;48.708;9.710;2024-03-07T09:28:11;97917.88;;;5.90;87.95
76052;BME280;64751;48.708;9.710;2024-03-07T09:30:39;97913.06;;;5.70;85.66
76052;BME280;64751;48.708;9.710;2024-03-07T09:33:07;97909.53;;;5.48;86.20
76052;BME280;64751;48.708;9.710;2024-03-07T09:35:37;97919.00;;;5.49;86.54
76052;BME280;64751;48.708;9.710;2024-03-07T09:38:10;97908.72;;;5.47;86.93
76052;BME280;64751;48.708;9.710;2024-03-07T09:40:37;97910.44;;;5.53;88.37
76052;BME280;64751;48.708;9.710;2024-03-07T09:43:12;97913.47;;;5.62;87.79
76052;BME280;64751;48.708;9.710;2024-03-07T09:45:46;97918.00;;;5.66;87.50
76052;BME280;64751;48.708;9.710;2024-03-07T09:48:21;97911.41;;;5.64;85.92
76052;BME280;64751;48.708;9.710;2024-03-07T09:50:58;97917.06;;;5.72;87.51
76052;BME280;64751;48.708;9.710;2024-03-07T09:53:28;97913.16;;;5.75;86.31
76052;BME280;64751;48.708;9.710;2024-03-07T09:55:56;97912.91;;;5.76;86.75
76052;BME280;64751;48.708;9.710;2024-03-07T09:58:31;97907.78;;;5.81;87.67
76052;BME280;64751;48.708;9.710;2024-03-07T10:01:02;97909.97;;;5.84;87.33
76052;BME280;64751;48.708;9.710;2024-03-07T10:03:32;97907.19;;;5.91;86.98
76052;BME280;64751;48.708;9.710;2024-03-07T10:06:02;97903.00;;;6.07;87.00
76052;BME280;64751;48.708;9.710;2024-03-07T10:08:34;97908.38;;;6.17;87.05
76052;BME280;64751;48.708;9.710;2024-03-07T10:11:03;97905.44;;;6.13;85.18
76052;BME280;64751;48.708;9.710;2024-03-07T10:13:31;97908.63;;;6.15;87.23
76052;BME280;64751;48.708;9.710;2024-03-07T10:15:58;97905.19;;;6.15;84.93
76052;BME280;64751;48.708;9.710;2024-03-07T10:18:32;97896.94;;;6.23;86.02
76052;BME280;64751;48.708;9.710;2024-03-07T10:21:00;97896.28;;;6.32;84.66
76052;BME280;64751;48.708;9.710;2024-03-07T10:23:30;97901.16;;;6.40;84.53
76052;BME280;64751;48.708;9.710;2024-03-07T10:26:00;97907.25;;;6.46;87.71
76052;BME280;64751;48.708;9.710;2024-03-07T10:28:27;97898.97;;;6.54;86.13
76052;BME280;64751;48.708;9.710;2024-03-07T10:30:55;97897.00;;;6.61;84.09
76052;BME280;64751;48.708;9.710;2024-03-07T10:33:27;97893.13;;;6.69;82.28
76052;BME280;64751;48.708;9.710;2024-03-07T10:36:01;97892.84;;;6.65;81.83
76052;BME280;64751;48.708;9.710;2024-03-07T10:38:28;97896.19;;;6.61;80.83
76052;BME280;64751;48.708;9.710;2024-03-07T10:41:02;97890.09;;;6.77;81.61
76052;BME280;64751;48.708;9.710;2024-03-07T10:43:31;97897.81;;;6.83;81.66
76052;BME280;64751;48.708;9.710;2024-03-07T10:46:05;97894.81;;;6.96;81.41
76052;BME280;64751;48.708;9.710;2024-03-07T10:48:38;97891.72;;;6.99;81.89
76052;BME280;64751;48.708;9.710;2024-03-07T10:51:14;97891.19;;;7.02;82.88
76052;BME280;64751;48.708;9.710;2024-03-07T10:53:54;97888.28;;;6.99;83.28
76052;BME280;64751;48.708;9.710;2024-03-07T10:56:35;97885.03;;;6.92;82.83
76052;BME280;64751;48.708;9.710;2024-03-07T10:59:16;97882.59;;;6.85;82.02
76052;BME280;64751;48.708;9.710;2024-03-07T11:01:58;97882.53;;;6.80;82.49
76052;BME280;64751;48.708;9.710;2024-03-07T11:04:31;97880.44;;;6.82;82.42
76052;BME280;64751;48.708;9.710;2024-03-07T11:07:06;97870.47;;;6.79;82.51
76052;BME280;64751;48.708;9.710;2024-03-07T11:09:37;97873.94;;;6.85;82.42
76052;BME280;64751;48.708;9.710;2024-03-07T11:12:07;97880.72;;;6.81;82.86
76052;BME280;64751;48.708;9.710;2024-03-07T11:14:42;97874.28;;;6.72;80.95
76052;BME280;64751;48.708;9.710;2024-03-07T11:17:15;97871.91;;;6.70;82.11
76052;BME280;64751;48.708;9.710;2024-03-07T11:19:48;97867.75;;;6.74;83.98
76052;BME280;64751;48.708;9.710;2024-03-07T11:22:29;97870.47;;;6.79;84.97
76052;BME280;64751;48.708;9.710;2024-03-07T11:25:04;97859.28;;;6.89;85.76
76052;BME280;64751;48.708;9.710;2024-03-07T11:27:36;97862.50;;;6.96;85.80
76052;BME280;64751;48.708;9.710;2024-03-07T11:30:06;97854.44;;;7.02;88.22
76052;BME280;64751;48.708;9.710;2024-03-07T11:32:39;97851.69;;;7.14;86.91
76052;BME280;64751;48.708;9.710;2024-03-07T11:35:12;97848.19;;;7.08;83.64
76052;BME280;64751;48.708;9.710;2024-03-07T11:37:43;97842.47;;;7.11;83.47
76052;BME280;64751;48.708;9.710;2024-03-07T11:40:43;97837.03;;;7.18;82.30
76052;BME280;64751;48.708;9.710;2024-03-07T11:43:11;97836.81;;;7.24;81.64
76052;BME280;64751;48.708;9.710;2024-03-07T11:45:44;97837.00;;;7.40;82.56
76052;BME280;64751;48.708;9.710;2024-03-07T11:48:23;97824.09;;;7.38;82.83
76052;BME280;64751;48.708;9.710;2024-03-07T11:50:55;97825.53;;;7.24;80.34
76052;BME280;64751;48.708;9.710;2024-03-07T11:53:24;97822.47;;;7.32;84.64
76052;BME280;64751;48.708;9.710;2024-03-07T11:55:52;97822.53;;;7.37;85.70
76052;BME280;64751;48.708;9.710;2024-03-07T11:58:21;97813.03;;;7.36;85.45
76052;BME280;64751;48.708;9.710;2024-03-07T12:00:49;97807.09;;;7.46;82.89
76052;BME280;64751;48.708;9.710;2024-03-07T12:03:18;97808.84;;;7.35;78.60
76052;BME280;64751;48.708;9.710;2024-03-07T12:05:52;97793.06;;;7.35;79.40
76052;BME280;64751;48.708;9.710;2024-03-07T12:08:19;97802.78;;;7.35;77.72
76052;BME280;64751;48.708;9.710;2024-03-07T12:10:55;97799.34;;;7.34;78.12
76052;BME280;64751;48.708;9.710;2024-03-07T12:13:28;97796.44;;;7.30;82.68
76052;BME280;64751;48.708;9.710;2024-03-07T12:15:55;97793.56;;;7.32;81.28
76052;BME280;64751;48.708;9.710;2024-03-07T12:18:29;97789.59;;;7.29;80.56
76052;BME280;64751;48.708;9.710;2024-03-07T12:20:57;97791.19;;;7.30;81.32
76052;BME280;64751;48.708;9.710;2024-03-07T12:23:30;97787.97;;;7.23;79.53
76052;BME280;64751;48.708;9.710;2024-03-07T12:26:01;97787.38;;;7.16;79.04
76052;BME280;64751;48.708;9.710;2024-03-07T12:28:29;97791.03;;;7.15;79.40
76052;BME280;64751;48.708;9.710;2024-03-07T12:30:59;97792.09;;;7.14;81.25
76052;BME280;64751;48.708;9.710;2024-03-07T12:33:29;97792.38;;;7.18;83.91
76052;BME280;64751;48.708;9.710;2024-03-07T12:36:02;97780.25;;;7.12;82.04
76052;BME280;64751;48.708;9.710;2024-03-07T12:38:33;97777.69;;;7.17;78.06
76052;BME280;64751;48.708;9.710;2024-03-07T12:41:04;97785.88;;;7.25;79.09
76052;BME280;64751;48.708;9.710;2024-03-07T12:43:38;97778.00;;;7.25;76.76
76052;BME280;64751;48.708;9.710;2024-03-07T12:46:13;97779.94;;;7.35;77.58
76052;BME280;64751;48.708;9.710;2024-03-07T12:48:46;97777.31;;;7.35;75.71
76052;BME280;64751;48.708;9.710;2024-03-07T12:51:15;97773.44;;;7.43;77.64
76052;BME280;64751;48.708;9.710;2024-03-07T12:53:43;97772.94;;;7.46;76.32
76052;BME280;64751;48.708;9.710;2024-03-07T12:56:18;97768.75;;;7.50;75.97
76052;BME280;64751;48.708;9.710;2024-03-07T12:58:51;97765.06;;;7.46;75.86
76052;BME280;64751;48.708;9.710;2024-03-07T13:01:25;97761.38;;;7.47;79.68
76052;BME280;64751;48.708;9.710;2024-03-07T13:03:53;97764.25;;;7.45;77.15
76052;BME280;64751;48.708;9.710;2024-03-07T13:06:21;97750.09;;;7.46;78.35
76052;BME280;64751;48.708;9.710;2024-03-07T13:08:56;97751.44;;;7.49;78.48
76052;BME280;64751;48.708;9.710;2024-03-07T13:11:30;97751.44;;;7.54;77.08
76052;BME280;64751;48.708;9.710;2024-03-07T13:13:59;97749.88;;;7.53;78.07
76052;BME280;64751;48.708;9.710;2024-03-07T13:16:32;97756.69;;;7.54;77.00
76052;BME280;64751;48.708;9.710;2024-03-07T13:19:00;97749.63;;;7.54;77.78
76052;BME280;64751;48.708;9.710;2024-03-07T13:21:30;97757.22;;;7.56;76.16
76052;BME280;64751;48.708;9.710;2024-03-07T13:24:03;97747.53;;;7.56;75.49
76052;BME280;64751;48.708;9.710;2024-03-07T13:26:38;97747.84;;;7.60;78.10
76052;BME280;64751;48.708;9.710;2024-03-07T13:29:05;97753.00;;;7.50;75.05